sensor_id;sensor_type;location;lat;lon;timestamp;pressure;altitude;pressure_sealevel;temperature;humidity
71970;BME280;59838;52.152;5.436;2023-03-01T00:02:07;103390.41;;;-3.22;88.36
71970;BME280;59838;52.152;5.436;2023-03-01T00:04:33;103387.06;;;-3.24;88.09
71970;BME280;59838;52.152;5.436;2023-03-01T00:07:01;103388.00;;;-3.28;88.27
71970;BME280;59838;52.152;5.436;2023-03-01T00:09:28;103388.78;;;-3.26;88.29
71970;BME280;59838;52.152;5.436;2023-03-01T00:11:55;103391.31;;;-3.24;88.50
71970;BME280;59838;52.152;5.436;2023-03-01T00:14:21;103389.66;;;-3.25;88.68
71970;BME280;59838;52.152;5.436;2023-03-01T00:16:48;103393.88;;;-3.26;88.74
71970;BME280;59838;52.152;5.436;2023-03-01T00:19:17;103393.06;;;-3.28;88.80
71970;BME280;59838;52.152;5.436;2023-03-01T00:21:44;103394.81;;;-3.30;88.90
71970;BME280;59838;52.152;5.436;2023-03-01T00:24:12;103387.22;;;-3.32;88.86
71970;BME280;59838;52.152;5.436;2023-03-01T00:26:39;103384.75;;;-3.36;89.02
71970;BME280;59838;52.152;5.436;2023-03-01T00:29:05;103383.94;;;-3.37;89.35
71970;BME280;59838;52.152;5.436;2023-03-01T00:31:33;103380.41;;;-3.31;89.52
71970;BME280;59838;52.152;5.436;2023-03-01T00:34:02;103372.66;;;-3.23;90.02
71970;BME280;59838;52.152;5.436;2023-03-01T00:36:32;103376.03;;;-3.23;90.22
71970;BME280;59838;52.152;5.436;2023-03-01T00:39:00;103368.44;;;-3.26;90.74
71970;BME280;59838;52.152;5.436;2023-03-01T00:41:26;103366.81;;;-3.28;90.45
71970;BME280;59838;52.152;5.436;2023-03-01T00:43:53;103374.44;;;-3.27;90.87
71970;BME280;59838;52.152;5.436;2023-03-01T00:46:22;103374.50;;;-3.32;90.96
71970;BME280;59838;52.152;5.436;2023-03-01T00:48:49;103378.81;;;-3.35;91.02
71970;BME280;59838;52.152;5.436;2023-03-01T00:51:18;103375.38;;;-3.34;91.03
71970;BME280;59838;52.152;5.436;2023-03-01T00:53:45;103377.13;;;-3.36;91.04
71970;BME280;59838;52.152;5.436;2023-03-01T00:56:14;103374.56;;;-3.35;91.12
71970;BME280;59838;52.152;5.436;2023-03-01T00:58:41;103367.75;;;-3.34;91.42
71970;BME280;59838;52.152;5.436;2023-03-01T01:01:26;103365.19;;;-3.33;91.63
71970;BME280;59838;52.152;5.436;2023-03-01T01:03:56;103366.00;;;-3.31;92.27
71970;BME280;59838;52.152;5.436;2023-03-01T01:06:28;103360.13;;;-3.34;91.96
71970;BME280;59838;52.152;5.436;2023-03-01T01:08:56;103353.22;;;-3.27;92.44
71970;BME280;59838;52.152;5.436;2023-03-01T01:11:24;103353.13;;;-3.23;93.20
71970;BME280;59838;52.152;5.436;2023-03-01T01:13:52;103353.06;;;-3.18;93.80
71970;BME280;59838;52.152;5.436;2023-03-01T01:16:20;103350.47;;;-3.17;94.02
71970;BME280;59838;52.152;5.436;2023-03-01T01:18:48;103342.06;;;-3.19;94.29
71970;BME280;59838;52.152;5.436;2023-03-01T01:21:17;103336.03;;;-3.15;94.51
71970;BME280;59838;52.152;5.436;2023-03-01T01:23:45;103342.81;;;-3.15;94.98
71970;BME280;59838;52.152;5.436;2023-03-01T01:26:15;103336.09;;;-3.18;94.97
71970;BME280;59838;52.152;5.436;2023-03-01T01:28:42;103336.91;;;-3.16;95.39
71970;BME280;59838;52.152;5.436;2023-03-01T01:31:08;103330.91;;;-3.13;95.48
71970;BME280;59838;52.152;5.436;2023-03-01T01:33:36;103331.00;;;-3.18;95.89
71970;BME280;59838;52.152;5.436;2023-03-01T01:36:08;103325.97;;;-3.21;96.02
71970;BME280;59838;52.152;5.436;2023-03-01T01:38:36;103328.59;;;-3.24;95.73
71970;BME280;59838;52.152;5.436;2023-03-01T01:41:04;103326.91;;;-3.25;96.06
71970;BME280;59838;52.152;5.436;2023-03-01T01:43:35;103332.84;;;-3.26;96.21
71970;BME280;59838;52.152;5.436;2023-03-01T01:49:23;103321.13;;;-3.32;96.73
71970;BME280;59838;52.152;5.436;2023-03-01T01:51:57;103327.78;;;-3.26;97.02
71970;BME280;59838;52.152;5.436;2023-03-01T01:54:41;103328.66;;;-3.27;96.84
71970;BME280;59838;52.152;5.436;2023-03-01T01:57:12;103328.75;;;-3.32;96.82
71970;BME280;59838;52.152;5.436;2023-03-01T01:59:42;103321.09;;;-3.30;97.17
71970;BME280;59838;52.152;5.436;2023-03-01T02:02:10;103321.88;;;-3.28;97.03
71970;BME280;59838;52.152;5.436;2023-03-01T02:04:38;103311.66;;;-3.25;97.62
71970;BME280;59838;52.152;5.436;2023-03-01T02:07:15;103315.00;;;-3.23;97.88
71970;BME280;59838;52.152;5.436;2023-03-01T02:09:46;103312.53;;;-3.26;97.78
71970;BME280;59838;52.152;5.436;2023-03-01T02:12:15;103310.91;;;-3.28;98.40
71970;BME280;59838;52.152;5.436;2023-03-01T02:14:43;103310.94;;;-3.30;98.38
71970;BME280;59838;52.152;5.436;2023-03-01T02:17:12;103314.28;;;-3.29;98.52
71970;BME280;59838;52.152;5.436;2023-03-01T02:22:37;103314.38;;;-3.34;98.56
71970;BME280;59838;52.152;5.436;2023-03-01T02:30:47;103307.69;;;-3.38;99.26
71970;BME280;59838;52.152;5.436;2023-03-01T02:33:34;103303.38;;;-3.35;99.13
71970;BME280;59838;52.152;5.436;2023-03-01T02:36:12;103299.06;;;-3.31;99.37
71970;BME280;59838;52.152;5.436;2023-03-01T02:38:41;103301.63;;;-3.31;99.50
71970;BME280;59838;52.152;5.436;2023-03-01T02:41:14;103297.44;;;-3.34;99.52
71970;BME280;59838;52.152;5.436;2023-03-01T02:43:42;103293.28;;;-3.38;99.72
71970;BME280;59838;52.152;5.436;2023-03-01T02:46:17;103289.06;;;-3.40;99.87
71970;BME280;59838;52.152;5.436;2023-03-01T02:48:47;103284.91;;;-3.43;99.58
71970;BME280;59838;52.152;5.436;2023-03-01T02:54:24;103286.53;;;-3.40;100.00
71970;BME280;59838;52.152;5.436;2023-03-01T02:56:55;103283.19;;;-3.42;99.91
71970;BME280;59838;52.152;5.436;2023-03-01T02:59:24;103280.75;;;-3.47;100.00
71970;BME280;59838;52.152;5.436;2023-03-01T03:01:53;103283.31;;;-3.49;100.00
71970;BME280;59838;52.152;5.436;2023-03-01T03:04:20;103287.66;;;-3.54;100.00
71970;BME280;59838;52.152;5.436;2023-03-01T03:06:49;103284.31;;;-3.56;100.00
71970;BME280;59838;52.152;5.436;2023-03-01T03:09:17;103279.34;;;-3.62;99.98
71970;BME280;59838;52.152;5.436;2023-03-01T03:11:44;103279.34;;;-3.62;100.00
71970;BME280;59838;52.152;5.436;2023-03-01T03:14:12;103274.25;;;-3.62;100.00
71970;BME280;59838;52.152;5.436;2023-03-01T03:16:45;103276.88;;;-3.65;100.00
71970;BME280;59838;52.152;5.436;2023-03-01T03:19:12;103270.19;;;-3.69;100.00
71970;BME280;59838;52.152;5.436;2023-03-01T03:21:39;103266.91;;;-3.76;99.80
71970;BME280;59838;52.152;5.436;2023-03-01T03:24:06;103268.75;;;-3.84;100.00
71970;BME280;59838;52.152;5.436;2023-03-01T03:26:32;103263.75;;;-3.87;99.67
71970;BME280;59838;52.152;5.436;2023-03-01T03:28:59;103260.34;;;-3.88;99.96
71970;BME280;59838;52.152;5.436;2023-03-01T03:31:26;103262.78;;;-3.81;99.67
71970;BME280;59838;52.152;5.436;2023-03-01T03:33:53;103260.22;;;-3.80;99.87
71970;BME280;59838;52.152;5.436;2023-03-01T03:36:22;103257.69;;;-3.81;99.93
71970;BME280;59838;52.152;5.436;2023-03-01T03:38:49;103262.78;;;-3.81;99.96
71970;BME280;59838;52.152;5.436;2023-03-01T03:41:16;103265.38;;;-3.84;100.00
71970;BME280;59838;52.152;5.436;2023-03-01T03:43:43;103267.97;;;-3.88;99.96
71970;BME280;59838;52.152;5.436;2023-03-01T03:46:11;103267.97;;;-3.88;100.00
71970;BME280;59838;52.152;5.436;2023-03-01T03:48:42;103264.56;;;-3.87;99.93
71970;BME280;59838;52.152;5.436;2023-03-01T03:51:15;103249.31;;;-3.85;100.00
71970;BME280;59838;52.152;5.436;2023-03-01T03:53:43;103255.19;;;-3.83;100.00
71970;BME280;59838;52.152;5.436;2023-03-01T03:56:11;103242.50;;;-3.83;100.00
71970;BME280;59838;52.152;5.436;2023-03-01T03:58:38;103248.44;;;-3.86;100.00
71970;BME280;59838;52.152;5.436;2023-03-01T04:01:05;103253.53;;;-3.86;100.00
71970;BME280;59838;52.152;5.436;2023-03-01T04:03:32;103252.84;;;-3.94;100.00
71970;BME280;59838;52.152;5.436;2023-03-01T04:06:00;103258.06;;;-4.00;100.00
71970;BME280;59838;52.152;5.436;2023-03-01T04:08:28;103254.75;;;-4.07;100.00
71970;BME280;59838;52.152;5.436;2023-03-01T04:11:02;103257.47;;;-4.16;100.00
71970;BME280;59838;52.152;5.436;2023-03-01T04:13:49;103259.31;;;-4.24;100.00
71970;BME280;59838;52.152;5.436;2023-03-01T04:16:16;103250.97;;;-4.31;99.85
71970;BME280;59838;52.152;5.436;2023-03-01T04:18:44;103255.16;;;-4.30;100.00
71970;BME280;59838;52.152;5.436;2023-03-01T04:21:11;103260.19;;;-4.27;99.94
71970;BME280;59838;52.152;5.436;2023-03-01T04:23:37;103256.84;;;-4.29;99.75
71970;BME280;59838;52.152;5.436;2023-03-01T04:26:04;103261.19;;;-4.35;99.61
71970;BME280;59838;52.152;5.436;2023-03-01T04:28:40;103256.94;;;-4.35;99.71
71970;BME280;59838;52.152;5.436;2023-03-01T04:31:14;103260.38;;;-4.39;99.45
71970;BME280;59838;52.152;5.436;2023-03-01T04:36:14;103263.94;;;-4.49;99.71
71970;BME280;59838;52.152;5.436;2023-03-01T04:38:42;103262.34;;;-4.53;99.45
71970;BME280;59838;52.152;5.436;2023-03-01T04:41:10;103254.81;;;-4.58;99.48
71970;BME280;59838;52.152;5.436;2023-03-01T04:43:37;103255.72;;;-4.64;99.23
71970;BME280;59838;52.152;5.436;2023-03-01T04:46:07;103251.53;;;-4.65;99.05
71970;BME280;59838;52.152;5.436;2023-03-01T04:48:41;103249.88;;;-4.69;98.84
71970;BME280;59838;52.152;5.436;2023-03-01T04:51:08;103250.75;;;-4.71;99.10
71970;BME280;59838;52.152;5.436;2023-03-01T04:53:35;103260.03;;;-4.70;99.30
71970;BME280;59838;52.152;5.436;2023-03-01T04:56:05;103245.72;;;-4.73;98.70
71970;BME280;59838;52.152;5.436;2023-03-01T04:58:32;103244.03;;;-4.74;98.85
71970;BME280;59838;52.152;5.436;2023-03-01T05:00:58;103233.94;;;-4.77;98.65
71970;BME280;59838;52.152;5.436;2023-03-01T05:03:25;103225.56;;;-4.82;99.16
71970;BME280;59838;52.152;5.436;2023-03-01T05:05:52;103221.34;;;-4.83;98.87
71970;BME280;59838;52.152;5.436;2023-03-01T05:08:19;103222.28;;;-4.87;98.99
71970;BME280;59838;52.152;5.436;2023-03-01T05:10:51;103215.53;;;-4.88;99.09
71970;BME280;59838;52.152;5.436;2023-03-01T05:13:20;103221.56;;;-4.96;98.88
71970;BME280;59838;52.152;5.436;2023-03-01T05:16:01;103218.22;;;-5.01;98.72
71970;BME280;59838;52.152;5.436;2023-03-01T05:18:29;103214.94;;;-5.06;98.51
71970;BME280;59838;52.152;5.436;2023-03-01T05:21:06;103210.72;;;-5.05;98.78
71970;BME280;59838;52.152;5.436;2023-03-01T05:23:33;103205.56;;;-5.02;98.55
71970;BME280;59838;52.152;5.436;2023-03-01T05:26:01;103206.44;;;-5.03;99.13
71970;BME280;59838;52.152;5.436;2023-03-01T05:28:28;103200.53;;;-5.04;98.73
71970;BME280;59838;52.152;5.436;2023-03-01T05:30:56;103201.41;;;-5.05;98.94
71970;BME280;59838;52.152;5.436;2023-03-01T05:33:24;103193.00;;;-5.08;98.89
71970;BME280;59838;52.152;5.436;2023-03-01T05:35:51;103191.31;;;-5.09;98.82
71970;BME280;59838;52.152;5.436;2023-03-01T05:38:20;103191.34;;;-5.11;98.99
71970;BME280;59838;52.152;5.436;2023-03-01T05:40:47;103180.41;;;-5.15;98.82
71970;BME280;59838;52.152;5.436;2023-03-01T05:43:16;103174.59;;;-5.20;98.82
71970;BME280;59838;52.152;5.436;2023-03-01T05:45:43;103173.72;;;-5.19;98.73
71970;BME280;59838;52.152;5.436;2023-03-01T05:48:11;103179.69;;;-5.23;98.32
71970;BME280;59838;52.152;5.436;2023-03-01T05:50:41;103178.06;;;-5.27;98.65
71970;BME280;59838;52.152;5.436;2023-03-01T05:53:14;103165.41;;;-5.30;98.73
71970;BME280;59838;52.152;5.436;2023-03-01T05:55:42;103169.66;;;-5.29;98.25
71970;BME280;59838;52.152;5.436;2023-03-01T05:58:11;103169.66;;;-5.30;98.83
71970;BME280;59838;52.152;5.436;2023-03-01T06:00:40;103169.66;;;-5.29;98.95
71970;BME280;59838;52.152;5.436;2023-03-01T06:03:10;103174.72;;;-5.29;98.97
71970;BME280;59838;52.152;5.436;2023-03-01T06:05:37;103173.88;;;-5.29;98.89
71970;BME280;59838;52.152;5.436;2023-03-01T06:08:05;103175.56;;;-5.32;98.95
71970;BME280;59838;52.152;5.436;2023-03-01T06:10:32;103168.84;;;-5.33;98.64
71970;BME280;59838;52.152;5.436;2023-03-01T06:12:59;103170.53;;;-5.33;98.77
71970;BME280;59838;52.152;5.436;2023-03-01T06:15:25;103162.09;;;-5.34;99.19
71970;BME280;59838;52.152;5.436;2023-03-01T06:17:54;103167.19;;;-5.35;98.71
71970;BME280;59838;52.152;5.436;2023-03-01T06:20:27;103175.56;;;-5.30;99.31
71970;BME280;59838;52.152;5.436;2023-03-01T06:22:54;103174.72;;;-5.29;99.29
71970;BME280;59838;52.152;5.436;2023-03-01T06:25:23;103171.22;;;-5.23;99.39
71970;BME280;59838;52.152;5.436;2023-03-01T06:27:50;103179.66;;;-5.20;99.63
71970;BME280;59838;52.152;5.436;2023-03-01T06:30:20;103172.84;;;-5.18;99.69
71970;BME280;59838;52.152;5.436;2023-03-01T06:32:47;103180.34;;;-5.08;99.78
71970;BME280;59838;52.152;5.436;2023-03-01T06:35:16;103177.69;;;-5.02;99.79
71970;BME280;59838;52.152;5.436;2023-03-01T06:37:47;103186.91;;;-4.97;99.80
71970;BME280;59838;52.152;5.436;2023-03-01T06:40:14;103181.78;;;-4.93;100.00
71970;BME280;59838;52.152;5.436;2023-03-01T06:42:43;103180.91;;;-4.91;100.00
71970;BME280;59838;52.152;5.436;2023-03-01T06:45:10;103177.47;;;-4.87;100.00
71970;BME280;59838;52.152;5.436;2023-03-01T06:47:37;103183.97;;;-4.70;100.00
71970;BME280;59838;52.152;5.436;2023-03-01T06:50:19;103177.31;;;-3.84;100.00
71970;BME280;59838;52.152;5.436;2023-03-01T06:52:58;103170.00;;;-2.48;100.00
71970;BME280;59838;52.152;5.436;2023-03-01T06:55:25;103156.44;;;-1.57;100.00
71970;BME280;59838;52.152;5.436;2023-03-01T06:57:56;103162.97;;;-0.68;96.86
71970;BME280;59838;52.152;5.436;2023-03-01T07:00:23;103161.56;;;0.21;92.72
71970;BME280;59838;52.152;5.436;2023-03-01T07:02:50;103154.94;;;1.03;88.79
71970;BME280;59838;52.152;5.436;2023-03-01T07:05:17;103150.72;;;1.83;85.22
71970;BME280;59838;52.152;5.436;2023-03-01T07:07:44;103145.81;;;2.35;81.71
71970;BME280;59838;52.152;5.436;2023-03-01T07:10:11;103143.53;;;2.83;79.22
71970;BME280;59838;52.152;5.436;2023-03-01T07:12:38;103145.16;;;3.37;77.26
71970;BME280;59838;52.152;5.436;2023-03-01T07:15:05;103144.63;;;3.81;73.68
71970;BME280;59838;52.152;5.436;2023-03-01T07:17:31;103141.63;;;4.05;71.96
71970;BME280;59838;52.152;5.436;2023-03-01T07:19:58;103156.59;;;4.14;70.74
71970;BME280;59838;52.152;5.436;2023-03-01T07:22:24;103146.94;;;4.33;70.47
71970;BME280;59838;52.152;5.436;2023-03-01T07:24:50;103147.69;;;5.12;68.27
71970;BME280;59838;52.152;5.436;2023-03-01T07:27:17;103145.94;;;5.84;65.42
71970;BME280;59838;52.152;5.436;2023-03-01T07:29:46;103145.44;;;6.21;64.90
71970;BME280;59838;52.152;5.436;2023-03-01T07:32:13;103140.03;;;6.78;63.29
71970;BME280;59838;52.152;5.436;2023-03-01T07:34:39;103152.00;;;7.32;62.01
71970;BME280;59838;52.152;5.436;2023-03-01T07:37:06;103155.59;;;7.56;60.87
71970;BME280;59838;52.152;5.436;2023-03-01T07:39:32;103150.41;;;7.68;59.27
71970;BME280;59838;52.152;5.436;2023-03-01T07:41:59;103153.09;;;7.54;58.43
71970;BME280;59838;52.152;5.436;2023-03-01T07:44:25;103148.66;;;7.43;58.49
71970;BME280;59838;52.152;5.436;2023-03-01T07:46:52;103157.56;;;7.13;59.27
71970;BME280;59838;52.152;5.436;2023-03-01T07:49:22;103169.00;;;6.84;60.64
71970;BME280;59838;52.152;5.436;2023-03-01T07:51:49;103159.16;;;6.76;60.37
71970;BME280;59838;52.152;5.436;2023-03-01T07:54:15;103158.25;;;6.90;59.79
71970;BME280;59838;52.152;5.436;2023-03-01T07:56:42;103164.06;;;6.53;58.98
71970;BME280;59838;52.152;5.436;2023-03-01T07:59:11;103161.06;;;6.05;60.29
71970;BME280;59838;52.152;5.436;2023-03-01T08:02:10;103175.34;;;5.82;60.93
71970;BME280;59838;52.152;5.436;2023-03-01T08:04:37;103172.31;;;5.75;61.36
71970;BME280;59838;52.152;5.436;2023-03-01T08:07:05;103166.78;;;5.67;61.58
71970;BME280;59838;52.152;5.436;2023-03-01T08:09:34;103179.63;;;4.63;62.95
71970;BME280;59838;52.152;5.436;2023-03-01T08:12:01;103189.63;;;3.21;65.92
71970;BME280;59838;52.152;5.436;2023-03-01T08:14:28;103180.78;;;2.36;69.27
71970;BME280;59838;52.152;5.436;2023-03-01T08:16:54;103176.09;;;1.89;71.03
71970;BME280;59838;52.152;5.436;2023-03-01T08:19:22;103175.78;;;1.57;72.64
71970;BME280;59838;52.152;5.436;2023-03-01T08:21:49;103184.09;;;1.42;74.02
71970;BME280;59838;52.152;5.436;2023-03-01T08:24:16;103173.47;;;1.31;75.14
71970;BME280;59838;52.152;5.436;2023-03-01T08:26:42;103176.34;;;1.23;75.46
71970;BME280;59838;52.152;5.436;2023-03-01T08:29:09;103182.44;;;1.20;76.42
71970;BME280;59838;52.152;5.436;2023-03-01T08:31:38;103180.88;;;1.16;78.09
71970;BME280;59838;52.152;5.436;2023-03-01T08:34:10;103176.97;;;1.07;77.22
71970;BME280;59838;52.152;5.436;2023-03-01T08:36:42;103175.00;;;1.14;77.28
71970;BME280;59838;52.152;5.436;2023-03-01T08:39:11;103172.50;;;1.13;77.53
71970;BME280;59838;52.152;5.436;2023-03-01T08:41:38;103159.13;;;1.26;78.99
71970;BME280;59838;52.152;5.436;2023-03-01T08:44:06;103165.66;;;1.34;78.25
71970;BME280;59838;52.152;5.436;2023-03-01T08:46:38;103160.97;;;1.43;78.20
71970;BME280;59838;52.152;5.436;2023-03-01T08:49:17;103168.91;;;1.58;77.61
71970;BME280;59838;52.152;5.436;2023-03-01T08:51:46;103156.66;;;1.64;77.43
71970;BME280;59838;52.152;5.436;2023-03-01T08:54:18;103153.72;;;1.74;77.95
71970;BME280;59838;52.152;5.436;2023-03-01T08:56:47;103146.25;;;1.88;77.48
71970;BME280;59838;52.152;5.436;2023-03-01T08:59:15;103143.81;;;2.04;77.62
71970;BME280;59838;52.152;5.436;2023-03-01T09:01:42;103142.63;;;2.11;77.46
71970;BME280;59838;52.152;5.436;2023-03-01T09:04:12;103153.03;;;2.27;77.09
71970;BME280;59838;52.152;5.436;2023-03-01T09:06:39;103137.50;;;2.30;76.75
71970;BME280;59838;52.152;5.436;2023-03-01T09:09:06;103138.44;;;2.47;75.16
71970;BME280;59838;52.152;5.436;2023-03-01T09:11:33;103139.78;;;2.54;76.22
71970;BME280;59838;52.152;5.436;2023-03-01T09:13:59;103123.28;;;2.60;72.77
71970;BME280;59838;52.152;5.436;2023-03-01T09:16:26;103127.56;;;2.59;73.14
71970;BME280;59838;52.152;5.436;2023-03-01T09:18:53;103120.03;;;2.73;72.28
71970;BME280;59838;52.152;5.436;2023-03-01T09:21:22;103125.69;;;2.80;71.78
71970;BME280;59838;52.152;5.436;2023-03-01T09:24:05;103120.88;;;2.91;72.00
71970;BME280;59838;52.152;5.436;2023-03-01T09:26:31;103111.13;;;3.16;72.39
71970;BME280;59838;52.152;5.436;2023-03-01T09:28:58;103108.25;;;3.22;71.80
71970;BME280;59838;52.152;5.436;2023-03-01T09:31:25;103109.00;;;3.24;70.56
71970;BME280;59838;52.152;5.436;2023-03-01T09:33:53;103104.13;;;3.35;70.21
71970;BME280;59838;52.152;5.436;2023-03-01T09:36:23;103102.63;;;3.48;69.87
71970;BME280;59838;52.152;5.436;2023-03-01T09:38:51;103100.88;;;3.49;68.52
71970;BME280;59838;52.152;5.436;2023-03-01T09:41:42;103092.16;;;3.67;69.79
71970;BME280;59838;52.152;5.436;2023-03-01T09:44:24;103099.13;;;3.65;69.71
71970;BME280;59838;52.152;5.436;2023-03-01T09:46:52;103086.78;;;3.72;67.15
71970;BME280;59838;52.152;5.436;2023-03-01T09:49:22;103093.78;;;3.86;67.18
71970;BME280;59838;52.152;5.436;2023-03-01T09:52:13;103083.91;;;3.94;66.26
71970;BME280;59838;52.152;5.436;2023-03-01T09:54:46;103099.50;;;3.91;64.31
71970;BME280;59838;52.152;5.436;2023-03-01T09:57:36;103095.94;;;3.94;66.13
71970;BME280;59838;52.152;5.436;2023-03-01T10:00:30;103101.59;;;4.00;63.37
71970;BME280;59838;52.152;5.436;2023-03-01T10:03:17;103088.47;;;4.05;63.04
71970;BME280;59838;52.152;5.436;2023-03-01T10:11:03;103085.28;;;4.32;62.01
71970;BME280;59838;52.152;5.436;2023-03-01T10:13:47;103093.66;;;4.35;61.81
71970;BME280;59838;52.152;5.436;2023-03-01T10:16:51;103088.25;;;4.40;61.56
71970;BME280;59838;52.152;5.436;2023-03-01T10:19:28;103085.84;;;4.37;61.70
71970;BME280;59838;52.152;5.436;2023-03-01T10:22:05;103077.88;;;4.42;61.47
71970;BME280;59838;52.152;5.436;2023-03-01T10:24:37;103077.44;;;4.49;62.27
71970;BME280;59838;52.152;5.436;2023-03-01T10:30:11;103077.41;;;4.65;61.79
71970;BME280;59838;52.152;5.436;2023-03-01T10:32:39;103070.84;;;4.60;60.24
71970;BME280;59838;52.152;5.436;2023-03-01T10:35:22;103081.63;;;4.66;61.51
71970;BME280;59838;52.152;5.436;2023-03-01T10:38:09;103074.78;;;4.81;59.26
71970;BME280;59838;52.152;5.436;2023-03-01T10:40:56;103066.75;;;4.71;59.96
71970;BME280;59838;52.152;5.436;2023-03-01T10:43:25;103060.97;;;4.82;59.06
71970;BME280;59838;52.152;5.436;2023-03-01T10:45:52;103057.22;;;4.88;58.00
71970;BME280;59838;52.152;5.436;2023-03-01T10:48:24;103057.69;;;4.94;58.56
71970;BME280;59838;52.152;5.436;2023-03-01T10:53:28;103042.97;;;5.11;60.89
71970;BME280;59838;52.152;5.436;2023-03-01T10:56:07;103040.03;;;5.17;54.80
71970;BME280;59838;52.152;5.436;2023-03-01T10:58:36;103035.78;;;5.16;56.45
71970;BME280;59838;52.152;5.436;2023-03-01T11:01:33;103031.16;;;5.21;56.97
71970;BME280;59838;52.152;5.436;2023-03-01T11:06:35;103020.50;;;5.27;55.78
71970;BME280;59838;52.152;5.436;2023-03-01T11:09:24;103012.94;;;5.39;56.07
71970;BME280;59838;52.152;5.436;2023-03-01T11:16:25;103007.19;;;5.62;54.24
71970;BME280;59838;52.152;5.436;2023-03-01T11:19:21;103003.94;;;5.59;53.40
71970;BME280;59838;52.152;5.436;2023-03-01T11:21:55;103005.56;;;5.74;53.83
71970;BME280;59838;52.152;5.436;2023-03-01T11:24:29;103006.94;;;5.80;52.58
71970;BME280;59838;52.152;5.436;2023-03-01T11:27:01;102992.06;;;5.71;51.31
71970;BME280;59838;52.152;5.436;2023-03-01T11:29:37;102994.63;;;5.71;51.93
71970;BME280;59838;52.152;5.436;2023-03-01T11:32:14;102995.78;;;5.79;53.32
71970;BME280;59838;52.152;5.436;2023-03-01T11:34:54;102989.94;;;5.90;51.56
71970;BME280;59838;52.152;5.436;2023-03-01T11:37:32;102996.56;;;5.94;52.98
71970;BME280;59838;52.152;5.436;2023-03-01T11:40:43;102991.97;;;5.99;51.62
71970;BME280;59838;52.152;5.436;2023-03-01T11:43:24;102989.94;;;6.04;49.85
71970;BME280;59838;52.152;5.436;2023-03-01T11:46:06;102982.91;;;6.07;52.06
71970;BME280;59838;52.152;5.436;2023-03-01T11:49:00;102986.13;;;6.23;51.52
71970;BME280;59838;52.152;5.436;2023-03-01T11:51:37;102980.47;;;6.31;50.60
71970;BME280;59838;52.152;5.436;2023-03-01T12:09:12;102956.72;;;6.26;50.03
71970;BME280;59838;52.152;5.436;2023-03-01T12:14:45;102971.16;;;6.28;49.47
71970;BME280;59838;52.152;5.436;2023-03-01T12:17:57;102971.16;;;6.28;50.80
71970;BME280;59838;52.152;5.436;2023-03-01T12:20:55;102976.25;;;6.43;49.36
71970;BME280;59838;52.152;5.436;2023-03-01T12:26:32;102973.78;;;6.54;47.44
71970;BME280;59838;52.152;5.436;2023-03-01T12:29:02;102970.25;;;6.42;48.26
71970;BME280;59838;52.152;5.436;2023-03-01T12:37:29;102958.28;;;6.54;49.52
71970;BME280;59838;52.152;5.436;2023-03-01T12:51:11;102935.66;;;6.57;49.09
71970;BME280;59838;52.152;5.436;2023-03-01T12:56:35;102936.38;;;6.47;50.97
71970;BME280;59838;52.152;5.436;2023-03-01T13:02:04;102917.25;;;6.62;51.39
71970;BME280;59838;52.152;5.436;2023-03-01T13:10:49;102888.44;;;6.68;50.34
71970;BME280;59838;52.152;5.436;2023-03-01T13:13:27;102900.22;;;6.72;49.00
71970;BME280;59838;52.152;5.436;2023-03-01T13:15:54;102891.00;;;6.68;49.94
71970;BME280;59838;52.152;5.436;2023-03-01T13:20:59;102890.91;;;6.70;48.83
71970;BME280;59838;52.152;5.436;2023-03-01T13:23:30;102886.25;;;6.62;46.39
71970;BME280;59838;52.152;5.436;2023-03-01T13:31:01;102884.84;;;6.58;47.79
71970;BME280;59838;52.152;5.436;2023-03-01T13:35:59;102874.81;;;6.66;47.21
71970;BME280;59838;52.152;5.436;2023-03-01T13:41:17;102855.28;;;6.62;47.46
71970;BME280;59838;52.152;5.436;2023-03-01T13:44:00;102851.75;;;6.76;48.70
71970;BME280;59838;52.152;5.436;2023-03-01T13:46:26;102850.03;;;6.88;46.45
71970;BME280;59838;52.152;5.436;2023-03-01T13:48:56;102847.06;;;6.81;49.05
71970;BME280;59838;52.152;5.436;2023-03-01T13:51:25;102843.34;;;6.85;48.71
71970;BME280;59838;52.152;5.436;2023-03-01T13:53:53;102844.38;;;6.83;48.38
71970;BME280;59838;52.152;5.436;2023-03-01T13:56:24;102844.06;;;6.87;50.23
71970;BME280;59838;52.152;5.436;2023-03-01T13:59:01;102834.31;;;6.91;48.76
71970;BME280;59838;52.152;5.436;2023-03-01T14:03:59;102827.00;;;6.85;48.30
71970;BME280;59838;52.152;5.436;2023-03-01T14:06:28;102821.50;;;6.89;47.42
71970;BME280;59838;52.152;5.436;2023-03-01T14:14:32;102809.19;;;6.93;46.97
71970;BME280;59838;52.152;5.436;2023-03-01T14:17:34;102797.44;;;6.89;47.31
71970;BME280;59838;52.152;5.436;2023-03-01T14:20:12;102801.13;;;6.98;46.66
71970;BME280;59838;52.152;5.436;2023-03-01T14:22:41;102789.19;;;6.84;46.84
71970;BME280;59838;52.152;5.436;2023-03-01T14:25:22;102793.91;;;6.90;48.01
71970;BME280;59838;52.152;5.436;2023-03-01T14:27:58;102787.94;;;6.89;45.17
71970;BME280;59838;52.152;5.436;2023-03-01T14:30:30;102784.03;;;6.84;46.47
71970;BME280;59838;52.152;5.436;2023-03-01T14:33:03;102782.97;;;6.86;46.46
71970;BME280;59838;52.152;5.436;2023-03-01T14:35:35;102781.72;;;6.92;49.26
71970;BME280;59838;52.152;5.436;2023-03-01T14:38:02;102780.81;;;7.04;46.68
71970;BME280;59838;52.152;5.436;2023-03-01T14:40:32;102774.72;;;6.81;47.23
71970;BME280;59838;52.152;5.436;2023-03-01T14:43:00;102763.81;;;6.77;48.33
71970;BME280;59838;52.152;5.436;2023-03-01T14:45:29;102765.44;;;6.78;48.10
71970;BME280;59838;52.152;5.436;2023-03-01T14:48:02;102767.78;;;6.82;49.15
71970;BME280;59838;52.152;5.436;2023-03-01T14:50:34;102763.59;;;6.81;47.11
71970;BME280;59838;52.152;5.436;2023-03-01T14:53:03;102763.38;;;6.84;46.83
71970;BME280;59838;52.152;5.436;2023-03-01T14:55:37;102765.44;;;6.78;47.70
71970;BME280;59838;52.152;5.436;2023-03-01T14:58:05;102765.78;;;6.74;48.51
71970;BME280;59838;52.152;5.436;2023-03-01T15:00:33;102772.78;;;6.72;48.77
71970;BME280;59838;52.152;5.436;2023-03-01T15:03:11;102770.22;;;6.72;47.98